sensor_id;sensor_type;location;lat;lon;timestamp;temperature;humidity
326;DHT22;150;52.352;14.058;2022-12-29T00:00:52;9.40;48.40
326;DHT22;150;52.352;14.058;2022-12-29T00:03:19;9.40;48.70
326;DHT22;150;52.352;14.058;2022-12-29T00:05:54;9.30;48.60
326;DHT22;150;52.352;14.058;2022-12-29T00:08:20;9.30;48.90
326;DHT22;150;52.352;14.058;2022-12-29T00:11:04;9.30;48.90
326;DHT22;150;52.352;14.058;2022-12-29T00:13:31;9.30;49.40
326;DHT22;150;52.352;14.058;2022-12-29T00:16:15;9.30;49.10
326;DHT22;150;52.352;14.058;2022-12-29T00:18:42;9.40;49.30
326;DHT22;150;52.352;14.058;2022-12-29T00:21:11;9.40;49.50
326;DHT22;150;52.352;14.058;2022-12-29T00:23:57;9.40;49.60
326;DHT22;150;52.352;14.058;2022-12-29T00:26:41;9.40;49.10
326;DHT22;150;52.352;14.058;2022-12-29T00:29:34;9.40;49.50
326;DHT22;150;52.352;14.058;2022-12-29T00:32:18;9.30;49.00
326;DHT22;150;52.352;14.058;2022-12-29T00:35:02;9.30;49.50
326;DHT22;150;52.352;14.058;2022-12-29T00:37:37;9.20;49.80
326;DHT22;150;52.352;14.058;2022-12-29T00:40:23;9.20;50.10
326;DHT22;150;52.352;14.058;2022-12-29T00:43:07;9.20;50.20
326;DHT22;150;52.352;14.058;2022-12-29T00:45:52;9.30;50.30
326;DHT22;150;52.352;14.058;2022-12-29T00:48:18;9.30;50.60
326;DHT22;150;52.352;14.058;2022-12-29T00:51:05;9.30;50.90
326;DHT22;150;52.352;14.058;2022-12-29T00:53:33;9.30;50.80
326;DHT22;150;52.352;14.058;2022-12-29T00:56:00;9.30;51.20
326;DHT22;150;52.352;14.058;2022-12-29T00:58:27;9.30;51.90
326;DHT22;150;52.352;14.058;2022-12-29T01:01:01;9.30;51.50
326;DHT22;150;52.352;14.058;2022-12-29T01:03:27;9.30;51.80
326;DHT22;150;52.352;14.058;2022-12-29T01:05:54;9.30;51.90
326;DHT22;150;52.352;14.058;2022-12-29T01:08:20;9.30;52.50
326;DHT22;150;52.352;14.058;2022-12-29T01:10:57;9.20;52.30
326;DHT22;150;52.352;14.058;2022-12-29T01:13:23;9.20;53.30
326;DHT22;150;52.352;14.058;2022-12-29T01:15:50;9.20;53.50
326;DHT22;150;52.352;14.058;2022-12-29T01:18:17;9.10;53.50
326;DHT22;150;52.352;14.058;2022-12-29T01:20:44;9.10;53.50
326;DHT22;150;52.352;14.058;2022-12-29T01:23:10;9.10;53.50
326;DHT22;150;52.352;14.058;2022-12-29T01:25:37;9.10;53.50
326;DHT22;150;52.352;14.058;2022-12-29T01:28:05;9.10;53.50
326;DHT22;150;52.352;14.058;2022-12-29T01:30:33;9.10;53.50
326;DHT22;150;52.352;14.058;2022-12-29T01:33:00;9.10;53.50
326;DHT22;150;52.352;14.058;2022-12-29T01:35:27;9.20;53.60
326;DHT22;150;52.352;14.058;2022-12-29T01:37:54;9.20;53.60
326;DHT22;150;52.352;14.058;2022-12-29T01:40:20;9.20;52.50
326;DHT22;150;52.352;14.058;2022-12-29T01:42:47;9.20;52.50
326;DHT22;150;52.352;14.058;2022-12-29T01:45:16;9.10;52.50
326;DHT22;150;52.352;14.058;2022-12-29T01:47:44;9.20;52.60
326;DHT22;150;52.352;14.058;2022-12-29T01:50:15;9.20;52.10
326;DHT22;150;52.352;14.058;2022-12-29T01:52:46;9.20;52.50
326;DHT22;150;52.352;14.058;2022-12-29T01:55:17;9.20;52.40
326;DHT22;150;52.352;14.058;2022-12-29T01:57:47;9.30;51.90
326;DHT22;150;52.352;14.058;2022-12-29T02:00:16;9.30;52.30
326;DHT22;150;52.352;14.058;2022-12-29T02:02:47;9.30;51.60
326;DHT22;150;52.352;14.058;2022-12-29T02:05:20;9.30;51.30
326;DHT22;150;52.352;14.058;2022-12-29T02:07:50;9.30;51.20
326;DHT22;150;52.352;14.058;2022-12-29T02:10:19;9.30;51.50
326;DHT22;150;52.352;14.058;2022-12-29T02:12:46;9.40;51.10
326;DHT22;150;52.352;14.058;2022-12-29T02:15:15;9.40;50.80
326;DHT22;150;52.352;14.058;2022-12-29T02:17:53;9.50;50.60
326;DHT22;150;52.352;14.058;2022-12-29T02:23:42;9.40;50.70
326;DHT22;150;52.352;14.058;2022-12-29T02:26:34;9.40;50.10
326;DHT22;150;52.352;14.058;2022-12-29T02:29:29;9.50;50.60
326;DHT22;150;52.352;14.058;2022-12-29T02:32:05;9.50;50.30
326;DHT22;150;52.352;14.058;2022-12-29T02:34:41;9.50;50.70
326;DHT22;150;52.352;14.058;2022-12-29T02:37:19;9.50;50.40
326;DHT22;150;52.352;14.058;2022-12-29T02:39:51;9.60;50.00
326;DHT22;150;52.352;14.058;2022-12-29T02:42:23;9.60;50.70
326;DHT22;150;52.352;14.058;2022-12-29T02:44:55;9.60;48.90
326;DHT22;150;52.352;14.058;2022-12-29T02:47:27;9.60;49.40
326;DHT22;150;52.352;14.058;2022-12-29T02:49:59;9.70;49.00
326;DHT22;150;52.352;14.058;2022-12-29T02:52:31;9.70;49.60
326;DHT22;150;52.352;14.058;2022-12-29T02:55:00;9.70;48.90
326;DHT22;150;52.352;14.058;2022-12-29T02:57:32;9.70;48.60
326;DHT22;150;52.352;14.058;2022-12-29T03:00:02;9.70;48.20
326;DHT22;150;52.352;14.058;2022-12-29T03:02:44;9.70;48.20
326;DHT22;150;52.352;14.058;2022-12-29T03:05:22;9.70;48.20
326;DHT22;150;52.352;14.058;2022-12-29T03:07:57;9.80;47.80
326;DHT22;150;52.352;14.058;2022-12-29T03:10:35;9.80;47.80
326;DHT22;150;52.352;14.058;2022-12-29T03:13:10;9.70;48.10
326;DHT22;150;52.352;14.058;2022-12-29T03:16:04;9.70;47.80
326;DHT22;150;52.352;14.058;2022-12-29T03:18:41;9.70;47.30
326;DHT22;150;52.352;14.058;2022-12-29T03:21:14;9.70;48.00
326;DHT22;150;52.352;14.058;2022-12-29T03:23:43;9.70;47.80
326;DHT22;150;52.352;14.058;2022-12-29T03:26:18;9.70;47.70
326;DHT22;150;52.352;14.058;2022-12-29T03:28:48;9.80;47.60
326;DHT22;150;52.352;14.058;2022-12-29T03:31:17;9.80;47.20
326;DHT22;150;52.352;14.058;2022-12-29T03:33:47;9.90;47.30
326;DHT22;150;52.352;14.058;2022-12-29T03:36:26;9.90;46.70
326;DHT22;150;52.352;14.058;2022-12-29T03:38:59;9.90;46.20
326;DHT22;150;52.352;14.058;2022-12-29T03:41:30;9.90;46.30
326;DHT22;150;52.352;14.058;2022-12-29T03:43:56;9.90;45.70
326;DHT22;150;52.352;14.058;2022-12-29T03:46:23;10.00;45.00
326;DHT22;150;52.352;14.058;2022-12-29T03:48:51;10.00;45.00
326;DHT22;150;52.352;14.058;2022-12-29T03:51:18;9.90;45.80
326;DHT22;150;52.352;14.058;2022-12-29T03:53:44;10.00;44.60
326;DHT22;150;52.352;14.058;2022-12-29T03:56:11;10.00;44.90
326;DHT22;150;52.352;14.058;2022-12-29T03:58:37;10.00;45.40
326;DHT22;150;52.352;14.058;2022-12-29T04:01:04;10.00;45.80
326;DHT22;150;52.352;14.058;2022-12-29T04:03:31;10.00;46.40
326;DHT22;150;52.352;14.058;2022-12-29T04:05:59;10.00;45.40
326;DHT22;150;52.352;14.058;2022-12-29T04:08:26;10.10;45.30
326;DHT22;150;52.352;14.058;2022-12-29T04:10:52;10.10;45.10
326;DHT22;150;52.352;14.058;2022-12-29T04:13:19;10.10;45.40
326;DHT22;150;52.352;14.058;2022-12-29T04:15:45;10.10;44.70
326;DHT22;150;52.352;14.058;2022-12-29T04:18:12;10.10;45.00
326;DHT22;150;52.352;14.058;2022-12-29T04:20:39;10.10;44.60
326;DHT22;150;52.352;14.058;2022-12-29T04:23:25;10.10;44.50
326;DHT22;150;52.352;14.058;2022-12-29T04:25:51;10.20;44.70
326;DHT22;150;52.352;14.058;2022-12-29T04:28:18;10.20;43.60
326;DHT22;150;52.352;14.058;2022-12-29T04:30:45;10.30;43.30
326;DHT22;150;52.352;14.058;2022-12-29T04:33:12;10.20;43.90
326;DHT22;150;52.352;14.058;2022-12-29T04:35:39;10.20;44.30
326;DHT22;150;52.352;14.058;2022-12-29T04:38:06;10.30;43.80
326;DHT22;150;52.352;14.058;2022-12-29T04:40:34;10.30;43.30
326;DHT22;150;52.352;14.058;2022-12-29T04:43:01;10.30;43.90
326;DHT22;150;52.352;14.058;2022-12-29T04:45:27;10.40;44.80
326;DHT22;150;52.352;14.058;2022-12-29T04:47:54;10.40;44.10
326;DHT22;150;52.352;14.058;2022-12-29T04:50:20;10.40;43.90
326;DHT22;150;52.352;14.058;2022-12-29T04:52:47;10.40;44.10
326;DHT22;150;52.352;14.058;2022-12-29T04:55:14;10.50;43.80
326;DHT22;150;52.352;14.058;2022-12-29T04:57:42;10.40;43.40
326;DHT22;150;52.352;14.058;2022-12-29T05:00:10;10.40;43.70
326;DHT22;150;52.352;14.058;2022-12-29T05:02:37;10.40;43.40
326;DHT22;150;52.352;14.058;2022-12-29T05:05:04;10.40;43.70
326;DHT22;150;52.352;14.058;2022-12-29T05:07:31;10.50;43.50
326;DHT22;150;52.352;14.058;2022-12-29T05:09:58;10.50;43.60
326;DHT22;150;52.352;14.058;2022-12-29T05:12:25;10.50;43.50
326;DHT22;150;52.352;14.058;2022-12-29T05:14:53;10.50;43.50
326;DHT22;150;52.352;14.058;2022-12-29T05:17:19;10.50;43.80
326;DHT22;150;52.352;14.058;2022-12-29T05:19:46;10.50;44.70
326;DHT22;150;52.352;14.058;2022-12-29T05:22:13;10.50;45.00
326;DHT22;150;52.352;14.058;2022-12-29T05:24:39;10.50;44.40
326;DHT22;150;52.352;14.058;2022-12-29T05:27:06;10.50;44.80
326;DHT22;150;52.352;14.058;2022-12-29T05:29:33;10.60;44.20
326;DHT22;150;52.352;14.058;2022-12-29T05:32:01;10.50;43.70
326;DHT22;150;52.352;14.058;2022-12-29T05:34:27;10.40;44.10
326;DHT22;150;52.352;14.058;2022-12-29T05:36:54;10.40;43.50
326;DHT22;150;52.352;14.058;2022-12-29T05:39:21;10.40;44.10
326;DHT22;150;52.352;14.058;2022-12-29T05:41:47;10.40;43.70
326;DHT22;150;52.352;14.058;2022-12-29T05:44:14;10.40;43.50
326;DHT22;150;52.352;14.058;2022-12-29T05:46:41;10.50;43.50
326;DHT22;150;52.352;14.058;2022-12-29T05:49:09;10.50;43.50
326;DHT22;150;52.352;14.058;2022-12-29T05:51:35;10.50;43.50
326;DHT22;150;52.352;14.058;2022-12-29T05:54:02;10.50;43.50
326;DHT22;150;52.352;14.058;2022-12-29T05:56:28;10.50;43.50
326;DHT22;150;52.352;14.058;2022-12-29T05:58:55;10.60;43.30
326;DHT22;150;52.352;14.058;2022-12-29T06:01:22;10.50;43.50
326;DHT22;150;52.352;14.058;2022-12-29T06:03:48;10.60;43.20
326;DHT22;150;52.352;14.058;2022-12-29T06:06:16;10.60;43.50
326;DHT22;150;52.352;14.058;2022-12-29T06:08:43;10.60;42.90
326;DHT22;150;52.352;14.058;2022-12-29T06:11:10;10.60;43.10
326;DHT22;150;52.352;14.058;2022-12-29T06:13:36;10.60;43.50
326;DHT22;150;52.352;14.058;2022-12-29T06:16:04;10.60;43.60
326;DHT22;150;52.352;14.058;2022-12-29T06:18:30;10.60;43.60
326;DHT22;150;52.352;14.058;2022-12-29T06:20:59;10.60;43.60
326;DHT22;150;52.352;14.058;2022-12-29T06:23:27;10.60;43.60
326;DHT22;150;52.352;14.058;2022-12-29T06:25:54;10.50;43.50
326;DHT22;150;52.352;14.058;2022-12-29T06:28:21;10.60;43.60
326;DHT22;150;52.352;14.058;2022-12-29T06:30:47;10.60;43.60
326;DHT22;150;52.352;14.058;2022-12-29T06:33:14;10.60;43.60
326;DHT22;150;52.352;14.058;2022-12-29T06:35:42;10.60;43.60
326;DHT22;150;52.352;14.058;2022-12-29T06:38:08;10.70;43.70
326;DHT22;150;52.352;14.058;2022-12-29T06:40:36;10.70;43.70
326;DHT22;150;52.352;14.058;2022-12-29T06:43:03;10.70;43.70
326;DHT22;150;52.352;14.058;2022-12-29T06:45:29;10.70;43.70
326;DHT22;150;52.352;14.058;2022-12-29T06:47:56;10.70;43.70
326;DHT22;150;52.352;14.058;2022-12-29T06:50:23;10.80;43.50
326;DHT22;150;52.352;14.058;2022-12-29T06:52:49;10.80;43.50
326;DHT22;150;52.352;14.058;2022-12-29T06:55:16;10.90;43.30
326;DHT22;150;52.352;14.058;2022-12-29T06:57:44;10.90;43.20
326;DHT22;150;52.352;14.058;2022-12-29T07:00:11;10.90;43.30
326;DHT22;150;52.352;14.058;2022-12-29T07:02:38;11.00;43.20
326;DHT22;150;52.352;14.058;2022-12-29T07:05:05;11.00;43.20
326;DHT22;150;52.352;14.058;2022-12-29T07:07:33;11.00;43.20
326;DHT22;150;52.352;14.058;2022-12-29T07:09:59;11.00;43.00
326;DHT22;150;52.352;14.058;2022-12-29T07:12:26;11.10;42.90
326;DHT22;150;52.352;14.058;2022-12-29T07:14:54;11.10;42.60
326;DHT22;150;52.352;14.058;2022-12-29T07:17:20;11.00;42.80
326;DHT22;150;52.352;14.058;2022-12-29T07:19:47;11.00;43.20
326;DHT22;150;52.352;14.058;2022-12-29T07:22:13;11.00;43.20
326;DHT22;150;52.352;14.058;2022-12-29T07:24:40;10.90;43.20
326;DHT22;150;52.352;14.058;2022-12-29T07:27:08;11.00;43.40
326;DHT22;150;52.352;14.058;2022-12-29T07:29:36;11.00;43.50
326;DHT22;150;52.352;14.058;2022-12-29T07:32:05;11.00;43.80
326;DHT22;150;52.352;14.058;2022-12-29T07:34:31;11.00;43.90
326;DHT22;150;52.352;14.058;2022-12-29T07:36:58;11.00;43.50
326;DHT22;150;52.352;14.058;2022-12-29T07:39:24;11.00;44.00
326;DHT22;150;52.352;14.058;2022-12-29T07:41:51;10.90;43.80
326;DHT22;150;52.352;14.058;2022-12-29T07:44:18;11.00;43.90
326;DHT22;150;52.352;14.058;2022-12-29T07:46:45;10.90;43.80
326;DHT22;150;52.352;14.058;2022-12-29T07:49:12;11.00;44.00
326;DHT22;150;52.352;14.058;2022-12-29T07:51:39;11.00;44.00
326;DHT22;150;52.352;14.058;2022-12-29T07:54:06;10.90;43.80
326;DHT22;150;52.352;14.058;2022-12-29T07:56:32;10.90;43.80
326;DHT22;150;52.352;14.058;2022-12-29T07:58:59;11.00;44.10
326;DHT22;150;52.352;14.058;2022-12-29T08:01:25;10.90;43.80
326;DHT22;150;52.352;14.058;2022-12-29T08:03:52;11.00;44.00
326;DHT22;150;52.352;14.058;2022-12-29T08:06:20;11.00;44.00
326;DHT22;150;52.352;14.058;2022-12-29T08:08:47;11.10;44.00
326;DHT22;150;52.352;14.058;2022-12-29T08:11:14;11.10;44.10
326;DHT22;150;52.352;14.058;2022-12-29T08:13:40;11.10;44.00
326;DHT22;150;52.352;14.058;2022-12-29T08:16:07;11.20;44.10
326;DHT22;150;52.352;14.058;2022-12-29T08:18:34;11.10;44.10
326;DHT22;150;52.352;14.058;2022-12-29T08:21:02;11.20;44.10
326;DHT22;150;52.352;14.058;2022-12-29T08:23:30;11.20;43.70
326;DHT22;150;52.352;14.058;2022-12-29T08:25:57;11.30;43.30
326;DHT22;150;52.352;14.058;2022-12-29T08:28:24;11.30;43.00
326;DHT22;150;52.352;14.058;2022-12-29T08:30:50;11.40;43.00
326;DHT22;150;52.352;14.058;2022-12-29T08:33:17;11.40;42.80
326;DHT22;150;52.352;14.058;2022-12-29T08:35:44;11.40;43.10
326;DHT22;150;52.352;14.058;2022-12-29T08:38:11;11.40;42.90
326;DHT22;150;52.352;14.058;2022-12-29T08:40:39;11.50;43.10
326;DHT22;150;52.352;14.058;2022-12-29T08:43:06;11.60;42.50
326;DHT22;150;52.352;14.058;2022-12-29T08:45:33;11.60;42.40
326;DHT22;150;52.352;14.058;2022-12-29T08:47:59;11.80;42.00
326;DHT22;150;52.352;14.058;2022-12-29T08:50:26;11.80;41.90
326;DHT22;150;52.352;14.058;2022-12-29T08:52:52;11.90;41.60
326;DHT22;150;52.352;14.058;2022-12-29T08:55:19;11.90;41.30
326;DHT22;150;52.352;14.058;2022-12-29T08:57:47;11.80;41.50
326;DHT22;150;52.352;14.058;2022-12-29T09:00:14;11.90;41.60
326;DHT22;150;52.352;14.058;2022-12-29T09:02:41;11.90;41.30
326;DHT22;150;52.352;14.058;2022-12-29T09:05:08;12.00;41.50
326;DHT22;150;52.352;14.058;2022-12-29T09:07:36;12.00;41.60
326;DHT22;150;52.352;14.058;2022-12-29T09:10:03;12.00;41.30
326;DHT22;150;52.352;14.058;2022-12-29T09:12:30;12.10;41.40
326;DHT22;150;52.352;14.058;2022-12-29T09:14:58;12.20;41.00
326;DHT22;150;52.352;14.058;2022-12-29T09:17:24;12.10;41.00
326;DHT22;150;52.352;14.058;2022-12-29T09:20:10;12.20;40.90
326;DHT22;150;52.352;14.058;2022-12-29T09:22:37;12.10;40.70
326;DHT22;150;52.352;14.058;2022-12-29T09:25:04;12.00;40.90
326;DHT22;150;52.352;14.058;2022-12-29T09:27:31;12.00;41.30
326;DHT22;150;52.352;14.058;2022-12-29T09:29:59;11.90;41.60
326;DHT22;150;52.352;14.058;2022-12-29T09:32:25;11.90;41.50
326;DHT22;150;52.352;14.058;2022-12-29T09:34:52;11.90;41.50
326;DHT22;150;52.352;14.058;2022-12-29T09:37:19;11.90;42.10
326;DHT22;150;52.352;14.058;2022-12-29T09:39:46;11.90;42.00
326;DHT22;150;52.352;14.058;2022-12-29T09:42:18;12.00;41.70
326;DHT22;150;52.352;14.058;2022-12-29T09:44:59;12.00;41.70
326;DHT22;150;52.352;14.058;2022-12-29T09:47:29;12.10;41.60
326;DHT22;150;52.352;14.058;2022-12-29T09:50:00;12.20;41.50
326;DHT22;150;52.352;14.058;2022-12-29T09:52:31;12.20;41.70
326;DHT22;150;52.352;14.058;2022-12-29T09:55:01;12.20;41.50
326;DHT22;150;52.352;14.058;2022-12-29T09:57:33;12.30;40.90
326;DHT22;150;52.352;14.058;2022-12-29T10:00:03;12.40;40.90
326;DHT22;150;52.352;14.058;2022-12-29T10:02:37;12.40;40.80
326;DHT22;150;52.352;14.058;2022-12-29T10:05:16;12.50;40.70
326;DHT22;150;52.352;14.058;2022-12-29T10:07:51;12.50;40.60
326;DHT22;150;52.352;14.058;2022-12-29T10:10:31;12.50;40.60
326;DHT22;150;52.352;14.058;2022-12-29T10:13:13;12.60;40.10
326;DHT22;150;52.352;14.058;2022-12-29T10:15:50;12.70;40.20
326;DHT22;150;52.352;14.058;2022-12-29T10:18:44;12.70;40.00
326;DHT22;150;52.352;14.058;2022-12-29T10:21:22;12.70;39.40
326;DHT22;150;52.352;14.058;2022-12-29T10:23:52;12.80;39.30
326;DHT22;150;52.352;14.058;2022-12-29T10:26:21;12.90;39.10
326;DHT22;150;52.352;14.058;2022-12-29T10:28:51;12.80;39.10
326;DHT22;150;52.352;14.058;2022-12-29T10:31:21;12.90;39.20
326;DHT22;150;52.352;14.058;2022-12-29T10:33:53;12.80;39.10
326;DHT22;150;52.352;14.058;2022-12-29T10:36:27;12.80;39.50
326;DHT22;150;52.352;14.058;2022-12-29T10:39:04;12.80;39.30
326;DHT22;150;52.352;14.058;2022-12-29T10:41:38;12.90;39.50
326;DHT22;150;52.352;14.058;2022-12-29T10:44:09;13.00;39.10
326;DHT22;150;52.352;14.058;2022-12-29T10:46:37;13.10;38.60
326;DHT22;150;52.352;14.058;2022-12-29T10:49:06;13.20;38.60
326;DHT22;150;52.352;14.058;2022-12-29T10:51:41;13.20;38.30
326;DHT22;150;52.352;14.058;2022-12-29T10:54:13;13.30;38.20
326;DHT22;150;52.352;14.058;2022-12-29T10:56:43;13.30;38.00
326;DHT22;150;52.352;14.058;2022-12-29T10:59:19;13.40;37.80
326;DHT22;150;52.352;14.058;2022-12-29T11:01:56;13.40;37.60
326;DHT22;150;52.352;14.058;2022-12-29T11:04:36;13.40;37.20
326;DHT22;150;52.352;14.058;2022-12-29T11:07:07;13.40;37.80
326;DHT22;150;52.352;14.058;2022-12-29T11:09:36;13.40;37.30
326;DHT22;150;52.352;14.058;2022-12-29T11:15:02;13.30;37.20
326;DHT22;150;52.352;14.058;2022-12-29T11:17:29;13.40;37.00
326;DHT22;150;52.352;14.058;2022-12-29T11:19:57;13.30;37.40
326;DHT22;150;52.352;14.058;2022-12-29T11:22:26;13.20;37.30
326;DHT22;150;52.352;14.058;2022-12-29T11:24:55;13.20;37.70
326;DHT22;150;52.352;14.058;2022-12-29T11:27:31;13.30;37.60
326;DHT22;150;52.352;14.058;2022-12-29T11:29:58;13.30;37.90
326;DHT22;150;52.352;14.058;2022-12-29T11:32:27;13.40;37.50
326;DHT22;150;52.352;14.058;2022-12-29T11:34:57;13.50;37.10
326;DHT22;150;52.352;14.058;2022-12-29T11:37:27;13.60;37.00
326;DHT22;150;52.352;14.058;2022-12-29T11:39:56;13.60;37.60
326;DHT22;150;52.352;14.058;2022-12-29T11:42:31;13.50;37.50
326;DHT22;150;52.352;14.058;2022-12-29T11:45:03;13.40;39.50
326;DHT22;150;52.352;14.058;2022-12-29T11:47:31;13.50;39.90
326;DHT22;150;52.352;14.058;2022-12-29T11:50:02;13.40;39.90
326;DHT22;150;52.352;14.058;2022-12-29T11:52:31;13.50;40.20
326;DHT22;150;52.352;14.058;2022-12-29T11:55:02;13.40;39.60
326;DHT22;150;52.352;14.058;2022-12-29T11:57:32;13.30;39.50
326;DHT22;150;52.352;14.058;2022-12-29T12:00:01;13.30;39.50
326;DHT22;150;52.352;14.058;2022-12-29T12:02:39;13.30;39.10
326;DHT22;150;52.352;14.058;2022-12-29T12:05:21;13.30;38.70
326;DHT22;150;52.352;14.058;2022-12-29T12:07:54;13.30;38.60
326;DHT22;150;52.352;14.058;2022-12-29T12:10:24;13.40;38.80
326;DHT22;150;52.352;14.058;2022-12-29T12:12:59;13.40;38.40
326;DHT22;150;52.352;14.058;2022-12-29T12:15:34;13.40;37.70
326;DHT22;150;52.352;14.058;2022-12-29T12:18:05;13.50;37.70
326;DHT22;150;52.352;14.058;2022-12-29T12:20:49;13.40;37.60
326;DHT22;150;52.352;14.058;2022-12-29T12:23:24;13.40;36.90
326;DHT22;150;52.352;14.058;2022-12-29T12:25:57;13.50;37.40
326;DHT22;150;52.352;14.058;2022-12-29T12:28:32;13.50;37.90
326;DHT22;150;52.352;14.058;2022-12-29T12:31:01;13.40;36.50
326;DHT22;150;52.352;14.058;2022-12-29T12:33:33;13.50;36.90
326;DHT22;150;52.352;14.058;2022-12-29T12:36:19;13.60;36.90
326;DHT22;150;52.352;14.058;2022-12-29T12:38:55;13.60;36.20
326;DHT22;150;52.352;14.058;2022-12-29T12:41:30;13.60;36.00
326;DHT22;150;52.352;14.058;2022-12-29T12:44:03;13.60;35.60
326;DHT22;150;52.352;14.058;2022-12-29T12:46:56;13.70;35.70
326;DHT22;150;52.352;14.058;2022-12-29T12:49:41;13.70;35.70
326;DHT22;150;52.352;14.058;2022-12-29T12:52:15;13.60;35.50
326;DHT22;150;52.352;14.058;2022-12-29T12:55:10;13.60;35.60
326;DHT22;150;52.352;14.058;2022-12-29T12:57:45;13.60;35.70
326;DHT22;150;52.352;14.058;2022-12-29T13:00:16;13.40;35.40
326;DHT22;150;52.352;14.058;2022-12-29T13:02:51;13.50;35.50
326;DHT22;150;52.352;14.058;2022-12-29T13:05:29;13.50;35.60
326;DHT22;150;52.352;14.058;2022-12-29T13:08:19;13.50;35.50
326;DHT22;150;52.352;14.058;2022-12-29T13:10:53;13.50;35.80
326;DHT22;150;52.352;14.058;2022-12-29T13:13:39;13.40;35.40
326;DHT22;150;52.352;14.058;2022-12-29T13:16:15;13.40;35.70
326;DHT22;150;52.352;14.058;2022-12-29T13:18:50;13.40;36.00
326;DHT22;150;52.352;14.058;2022-12-29T13:21:27;13.40;35.80
326;DHT22;150;52.352;14.058;2022-12-29T13:24:00;13.50;36.10
326;DHT22;150;52.352;14.058;2022-12-29T13:26:31;13.60;35.60
326;DHT22;150;52.352;14.058;2022-12-29T13:29:04;13.70;35.70
326;DHT22;150;52.352;14.058;2022-12-29T13:31:39;13.70;35.70
326;DHT22;150;52.352;14.058;2022-12-29T13:34:17;13.70;35.70
326;DHT22;150;52.352;14.058;2022-12-29T13:36:52;13.70;35.70
326;DHT22;150;52.352;14.058;2022-12-29T13:39:25;13.80;35.80
326;DHT22;150;52.352;14.058;2022-12-29T13:41:55;13.80;35.80
326;DHT22;150;52.352;14.058;2022-12-29T13:44:26;13.80;35.80
326;DHT22;150;52.352;14.058;2022-12-29T13:46:56;13.80;35.80
326;DHT22;150;52.352;14.058;2022-12-29T13:49:26;13.80;35.80
326;DHT22;150;52.352;14.058;2022-12-29T13:51:55;13.80;35.80
326;DHT22;150;52.352;14.058;2022-12-29T13:54:30;13.80;35.80
326;DHT22;150;52.352;14.058;2022-12-29T13:57:08;13.80;35.80
326;DHT22;150;52.352;14.058;2022-12-29T13:59:42;13.80;35.80
326;DHT22;150;52.352;14.058;2022-12-29T14:02:21;13.70;35.70
326;DHT22;150;52.352;14.058;2022-12-29T14:04:58;13.60;35.70
326;DHT22;150;52.352;14.058;2022-12-29T14:07:25;13.50;36.40
326;DHT22;150;52.352;14.058;2022-12-29T14:09:54;13.30;37.00
326;DHT22;150;52.352;14.058;2022-12-29T14:12:29;13.20;37.30
326;DHT22;150;52.352;14.058;2022-12-29T14:15:03;13.10;37.80
326;DHT22;150;52.352;14.058;2022-12-29T14:17:31;13.00;38.00
326;DHT22;150;52.352;14.058;2022-12-29T14:19:58;12.90;38.30
326;DHT22;150;52.352;14.058;2022-12-29T14:22:26;12.90;38.50
326;DHT22;150;52.352;14.058;2022-12-29T14:24:54;12.80;38.40
326;DHT22;150;52.352;14.058;2022-12-29T14:27:44;12.80;38.60
326;DHT22;150;52.352;14.058;2022-12-29T14:30:45;12.70;38.80
326;DHT22;150;52.352;14.058;2022-12-29T14:33:14;12.80;38.80
326;DHT22;150;52.352;14.058;2022-12-29T14:35:43;12.70;38.80
326;DHT22;150;52.352;14.058;2022-12-29T14:38:19;12.70;39.00
326;DHT22;150;52.352;14.058;2022-12-29T14:40:49;12.70;39.20
326;DHT22;150;52.352;14.058;2022-12-29T14:43:20;12.60;39.00
326;DHT22;150;52.352;14.058;2022-12-29T14:45:54;12.60;38.90
326;DHT22;150;52.352;14.058;2022-12-29T14:48:30;12.60;38.80
326;DHT22;150;52.352;14.058;2022-12-29T14:50:58;12.70;38.50
326;DHT22;150;52.352;14.058;2022-12-29T14:53:43;12.70;38.30
326;DHT22;150;52.352;14.058;2022-12-29T14:56:12;12.60;38.20
326;DHT22;150;52.352;14.058;2022-12-29T14:58:45;12.60;38.00
326;DHT22;150;52.352;14.058;2022-12-29T15:01:18;12.60;38.00
326;DHT22;150;52.352;14.058;2022-12-29T15:03:48;12.50;38.30
326;DHT22;150;52.352;14.058;2022-12-29T15:06:17;12.50;37.90
326;DHT22;150;52.352;14.058;2022-12-29T15:08:50;12.50;37.80
326;DHT22;150;52.352;14.058;2022-12-29T15:11:20;12.50;37.90
326;DHT22;150;52.352;14.058;2022-12-29T15:13:47;12.40;37.80
326;DHT22;150;52.352;14.058;2022-12-29T15:16:22;12.40;37.60
326;DHT22;150;52.352;14.058;2022-12-29T15:18:50;12.50;37.70
326;DHT22;150;52.352;14.058;2022-12-29T15:21:17;12.50;37.40
326;DHT22;150;52.352;14.058;2022-12-29T15:23:45;12.50;37.10
326;DHT22;150;52.352;14.058;2022-12-29T15:26:13;12.40;36.50
326;DHT22;150;52.352;14.058;2022-12-29T15:28:48;12.40;36.90
326;DHT22;150;52.352;14.058;2022-12-29T15:31:17;12.40;36.50
326;DHT22;150;52.352;14.058;2022-12-29T15:33:46;12.40;36.10
326;DHT22;150;52.352;14.058;2022-12-29T15:36:18;12.40;35.90
326;DHT22;150;52.352;14.058;2022-12-29T15:38:45;12.40;35.50
326;DHT22;150;52.352;14.058;2022-12-29T15:41:24;12.40;35.40
326;DHT22;150;52.352;14.058;2022-12-29T15:43:59;12.40;35.30
326;DHT22;150;52.352;14.058;2022-12-29T15:46:30;12.40;35.60
326;DHT22;150;52.352;14.058;2022-12-29T15:48:57;12.40;35.30
326;DHT22;150;52.352;14.058;2022-12-29T15:51:28;12.40;35.20
326;DHT22;150;52.352;14.058;2022-12-29T15:53:56;12.40;35.40
326;DHT22;150;52.352;14.058;2022-12-29T15:56:23;12.30;35.70
326;DHT22;150;52.352;14.058;2022-12-29T15:58:51;12.30;35.90
326;DHT22;150;52.352;14.058;2022-12-29T16:01:24;12.30;35.90
326;DHT22;150;52.352;14.058;2022-12-29T16:03:53;12.30;35.90
326;DHT22;150;52.352;14.058;2022-12-29T16:06:29;12.30;36.00
326;DHT22;150;52.352;14.058;2022-12-29T16:08:56;12.30;36.10
326;DHT22;150;52.352;14.058;2022-12-29T16:11:26;12.30;36.20
326;DHT22;150;52.352;14.058;2022-12-29T16:13:54;12.30;36.50
326;DHT22;150;52.352;14.058;2022-12-29T16:16:26;12.40;36.50
326;DHT22;150;52.352;14.058;2022-12-29T16:18:54;12.40;36.40
326;DHT22;150;52.352;14.058;2022-12-29T16:21:24;12.50;36.50
326;DHT22;150;52.352;14.058;2022-12-29T16:23:54;12.40;36.50
326;DHT22;150;52.352;14.058;2022-12-29T16:26:22;12.40;36.50
326;DHT22;150;52.352;14.058;2022-12-29T16:28:51;12.30;37.00
326;DHT22;150;52.352;14.058;2022-12-29T16:31:23;12.20;37.20
326;DHT22;150;52.352;14.058;2022-12-29T16:33:52;12.20;37.50
326;DHT22;150;52.352;14.058;2022-12-29T16:36:31;12.10;37.70
326;DHT22;150;52.352;14.058;2022-12-29T16:39:15;12.10;37.90
326;DHT22;150;52.352;14.058;2022-12-29T16:41:44;12.10;38.00
326;DHT22;150;52.352;14.058;2022-12-29T16:44:12;12.00;38.40
326;DHT22;150;52.352;14.058;2022-12-29T16:46:44;12.00;38.80
326;DHT22;150;52.352;14.058;2022-12-29T16:49:22;12.00;38.70
326;DHT22;150;52.352;14.058;2022-12-29T16:51:48;12.00;38.70